Time;durP1;ratioP1;P1;durP2;ratioP2;P2;SDS_P1;SDS_P2;PMS_P1;PMS_P2;Temp;Humidity;BMP_temperature;BMP_pressure;BME280_temperature;BME280_humidity;BME280_pressure;Samples;Min_cycle;Max_cycle;Signal;HPM_P1;HPM_P2
2022/01/10 00:01:56;;;;;;;;;;;;;;;10.09;36.07;98353.97;4481618;32;34179;-84
2022/01/10 00:04:24;;;;;;;;;;;;;;;10.24;35.87;98353.97;4481304;32;35054;-84
2022/01/10 00:06:51;;;;;;;;;;;;;;;10.25;35.90;98354.87;4479875;32;34577;-85
2022/01/10 00:09:18;;;;;;;;;;;;;;;10.22;35.98;98350.50;4475774;32;35234;-88
2022/01/10 00:11:46;;;;;;;;;;;;;;;10.29;35.81;98342.78;4474531;32;34232;-87
2022/01/10 00:14:13;;;;;;;;;;;;;;;10.26;35.86;98347.94;4479821;32;33678;-87
2022/01/10 00:16:40;;;;;;;;;;;;;;;10.36;35.75;98352.28;4481541;32;34286;-87
2022/01/10 00:19:08;;;;;;;;;;;;;;;10.34;35.65;98356.59;4481582;32;35063;-87
2022/01/10 00:21:35;;;;;;;;;;;;;;;9.77;36.59;98348.69;4481993;32;35091;-88
2022/01/10 00:24:02;;;;;;;;;;;;;;;9.75;36.65;98346.13;4482890;32;34733;-88
2022/01/10 00:26:29;;;;;;;;;;;;;;;9.91;36.48;98351.31;4483825;32;33857;-87
2022/01/10 00:28:57;;;;;;;;;;;;;;;10.05;36.26;98356.53;4468409;32;34722;-87
2022/01/10 00:31:24;;;;;;;;;;;;;;;10.13;36.19;98358.28;4483024;32;35542;-88
2022/01/10 00:33:51;;;;;;;;;;;;;;;10.13;36.15;98355.69;4483862;31;34468;-88
2022/01/10 00:36:18;;;;;;;;;;;;;;;10.01;36.42;98358.25;4483174;32;34395;-88
2022/01/10 00:38:45;;;;;;;;;;;;;;;9.85;36.61;98361.66;4483748;31;34973;-87
2022/01/10 00:41:13;;;;;;;;;;;;;;;10.14;36.06;98360.00;4484237;32;34446;-87
2022/01/10 00:43:45;;;;;;;;;;;;;;;10.26;35.73;98361.75;4483323;32;34573;-88
2022/01/10 00:46:17;;;;;;;;;;;;;;;10.12;35.88;98359.16;4483114;32;32726;-87
2022/01/10 00:48:45;;;;;;;;;;;;;;;10.27;35.75;98360.94;4483257;32;34873;-87
2022/01/10 00:51:12;;;;;;;;;;;;;;;10.06;35.89;98361.72;4483965;32;34702;-86
2022/01/10 00:53:47;;;;;;;;;;;;;;;10.21;35.79;98355.69;4483860;32;33855;-86
2022/01/10 00:56:15;;;;;;;;;;;;;;;9.66;36.63;98361.63;4483337;32;34115;-87
2022/01/10 00:58:42;;;;;;;;;;;;;;;9.90;36.15;98368.59;4483837;32;34497;-85
2022/01/10 01:01:09;;;;;;;;;;;;;;;9.99;35.84;98358.25;4481251;32;34448;-87
2022/01/10 01:03:37;;;;;;;;;;;;;;;9.93;35.89;98372.91;4469261;32;33705;-88
2022/01/10 01:06:04;;;;;;;;;;;;;;;10.01;35.79;98371.22;4482739;32;33716;-86
2022/01/10 01:08:34;;;;;;;;;;;;;;;9.91;36.01;98377.22;4482290;32;34202;-88
2022/01/10 01:13:39;;;;;;;;;;;;;;;10.02;35.76;98378.09;4483122;32;33727;-84
2022/01/10 01:24:06;;;;;;;;;;;;;;;10.09;35.56;98385.03;4481786;32;34749;-87
2022/01/10 01:26:44;;;;;;;;;;;;;;;10.01;35.75;98378.97;4482169;32;34018;-85
2022/01/10 01:29:16;;;;;;;;;;;;;;;10.14;35.63;98375.53;4482843;32;34212;-87
2022/01/10 01:31:43;;;;;;;;;;;;;;;9.90;35.87;98381.53;4483975;32;34418;-87
2022/01/10 01:34:11;;;;;;;;;;;;;;;10.06;35.80;98382.44;4483207;32;34026;-87
2022/01/10 01:36:39;;;;;;;;;;;;;;;10.16;35.75;98380.75;4483265;32;34294;-86
2022/01/10 01:39:17;;;;;;;;;;;;;;;10.13;35.89;98376.41;4483628;32;35076;-85
2022/01/10 01:41:45;;;;;;;;;;;;;;;9.88;36.28;98382.38;4481074;32;33871;-84
2022/01/10 01:44:13;;;;;;;;;;;;;;;9.72;36.72;98381.47;4483046;32;34142;-86
2022/01/10 01:46:42;;;;;;;;;;;;;;;9.92;36.38;98382.38;4476018;32;33449;-84
2022/01/10 01:49:10;;;;;;;;;;;;;;;9.87;36.46;98389.28;4483560;32;33745;-85
2022/01/10 01:51:37;;;;;;;;;;;;;;;9.92;36.54;98391.88;4483722;32;34319;-87
2022/01/10 01:54:05;;;;;;;;;;;;;;;9.35;37.30;98396.81;4483936;32;34163;-85
2022/01/10 01:56:32;;;;;;;;;;;;;;;9.74;36.90;98393.56;4483234;32;32418;-88
2022/01/10 01:59:00;;;;;;;;;;;;;;;9.85;36.90;98387.53;4483967;32;34039;-85
2022/01/10 02:01:28;;;;;;;;;;;;;;;9.94;36.75;98390.19;4483092;32;34046;-87
2022/01/10 02:03:55;;;;;;;;;;;;;;;10.19;36.38;98397.16;4482547;32;34046;-88
2022/01/10 02:06:23;;;;;;;;;;;;;;;10.22;36.31;98388.50;4483316;32;33184;-88
2022/01/10 02:08:51;;;;;;;;;;;;;;;10.33;36.16;98388.56;4482608;32;34112;-87
2022/01/10 02:11:19;;;;;;;;;;;;;;;10.40;35.98;98388.56;4483005;32;34405;-87
2022/01/10 02:13:46;;;;;;;;;;;;;;;10.39;35.87;98384.25;4483535;32;34434;-87
2022/01/10 02:16:21;;;;;;;;;;;;;;;10.23;36.08;98385.94;4482916;32;33524;-87
2022/01/10 02:18:49;;;;;;;;;;;;;;;10.39;35.86;98380.81;4483262;32;34312;-87
2022/01/10 02:21:16;;;;;;;;;;;;;;;10.41;35.80;98384.25;4483248;32;34078;-88
2022/01/10 02:23:43;;;;;;;;;;;;;;;10.43;35.74;98392.91;4482844;32;33455;-86
2022/01/10 02:26:13;;;;;;;;;;;;;;;10.40;35.83;98388.56;4479994;32;32046;-87
2022/01/10 02:28:40;;;;;;;;;;;;;;;10.32;36.01;98384.25;4481914;32;34859;-87
2022/01/10 02:31:08;;;;;;;;;;;;;;;10.57;35.65;98379.91;4482805;32;33408;-87
2022/01/10 02:33:35;;;;;;;;;;;;;;;10.64;35.54;98385.09;4483235;32;34255;-87
2022/01/10 02:38:37;;;;;;;;;;;;;;;10.49;35.57;98385.09;4482703;31;34779;-85
2022/01/10 02:41:05;;;;;;;;;;;;;;;10.48;35.52;98373.88;4481892;31;34936;-87
2022/01/10 02:43:32;;;;;;;;;;;;;;;10.49;35.58;98387.69;4483227;32;33856;-86
2022/01/10 02:45:59;;;;;;;;;;;;;;;10.81;34.83;98377.34;4482296;31;32538;-86
2022/01/10 02:48:27;;;;;;;;;;;;;;;10.13;35.87;98386.75;4482917;32;33850;-87
2022/01/10 02:50:54;;;;;;;;;;;;;;;10.34;35.58;98380.81;4482564;32;34419;-87
2022/01/10 02:53:21;;;;;;;;;;;;;;;10.15;35.90;98386.75;4482743;32;34044;-86
2022/01/10 02:55:48;;;;;;;;;;;;;;;9.35;37.51;98390.78;4481443;32;32963;-84
2022/01/10 02:58:16;;;;;;;;;;;;;;;9.69;36.91;98389.22;4483134;31;33974;-87
2022/01/10 03:00:43;;;;;;;;;;;;;;;9.79;36.80;98395.31;4482835;32;34192;-85
2022/01/10 03:03:10;;;;;;;;;;;;;;;9.96;36.49;98404.88;4481351;32;35078;-87
2022/01/10 03:05:38;;;;;;;;;;;;;;;9.86;36.74;98399.66;4482999;32;33635;-87
2022/01/10 03:08:05;;;;;;;;;;;;;;;9.80;36.88;98403.06;4482719;32;33862;-87
2022/01/10 03:10:33;;;;;;;;;;;;;;;10.05;36.44;98406.59;4482606;32;34100;-88
2022/01/10 03:13:00;;;;;;;;;;;;;;;9.68;37.23;98403.88;4482598;32;33879;-87
2022/01/10 03:15:29;;;;;;;;;;;;;;;9.67;37.41;98402.16;4474930;32;32976;-87
2022/01/10 03:17:57;;;;;;;;;;;;;;;9.96;37.04;98403.97;4482881;32;34160;-87
2022/01/10 03:20:24;;;;;;;;;;;;;;;9.71;37.55;98413.41;4482274;32;35072;-87
2022/01/10 03:22:51;;;;;;;;;;;;;;;9.95;37.17;98415.19;4482728;32;33826;-84
2022/01/10 03:25:19;;;;;;;;;;;;;;;9.91;37.17;98410.88;4481729;32;32970;-87
2022/01/10 03:27:46;;;;;;;;;;;;;;;9.96;37.09;98417.81;4480280;32;35005;-84
2022/01/10 03:30:15;;;;;;;;;;;;;;;9.82;37.27;98411.72;4480034;32;34591;-86
2022/01/10 03:32:43;;;;;;;;;;;;;;;10.05;36.96;98419.56;4482668;32;34167;-87
2022/01/10 03:35:11;;;;;;;;;;;;;;;10.05;36.98;98421.28;4482899;32;33487;-86
2022/01/10 03:37:38;;;;;;;;;;;;;;;9.61;37.77;98414.22;4482381;31;33582;-87
2022/01/10 03:40:06;;;;;;;;;;;;;;;10.01;37.12;98425.59;4482951;32;34170;-86
2022/01/10 03:42:34;;;;;;;;;;;;;;;10.24;36.69;98429.09;4482914;32;34775;-85
2022/01/10 03:45:01;;;;;;;;;;;;;;;10.35;36.37;98421.38;4482893;32;33104;-87
2022/01/10 03:47:29;;;;;;;;;;;;;;;10.30;36.59;98427.41;4483000;32;34270;-87
2022/01/10 03:49:56;;;;;;;;;;;;;;;10.47;36.33;98430.91;4482157;32;34876;-84
2022/01/10 03:52:25;;;;;;;;;;;;;;;10.39;36.48;98443.84;4466924;32;34497;-86
2022/01/10 03:54:52;;;;;;;;;;;;;;;10.56;36.20;98443.00;4469063;32;34564;-84
2022/01/10 03:57:20;;;;;;;;;;;;;;;10.58;36.21;98439.56;4482557;32;33896;-87
2022/01/10 03:59:47;;;;;;;;;;;;;;;10.64;36.25;98447.31;4483641;32;34206;-84
2022/01/10 04:02:14;;;;;;;;;;;;;;;10.43;36.59;98452.50;4483560;32;34244;-87
2022/01/10 04:04:42;;;;;;;;;;;;;;;10.77;35.92;98447.34;4484154;32;33985;-84
2022/01/10 04:07:12;;;;;;;;;;;;;;;10.34;36.58;98455.94;4481489;32;34191;-87
2022/01/10 04:09:39;;;;;;;;;;;;;;;10.58;36.19;98455.09;4484476;32;34464;-87
2022/01/10 04:12:06;;;;;;;;;;;;;;;10.58;36.24;98462.88;4484190;31;34688;-88
2022/01/10 04:14:34;;;;;;;;;;;;;;;10.82;35.84;98459.44;4483920;32;34138;-87
2022/01/10 04:17:01;;;;;;;;;;;;;;;10.86;35.75;98468.09;4481528;32;32559;-84
2022/01/10 04:19:28;;;;;;;;;;;;;;;10.90;35.60;98464.62;4484045;32;34011;-85
2022/01/10 04:21:55;;;;;;;;;;;;;;;10.89;35.66;98465.50;4483913;32;33657;-87
2022/01/10 04:24:23;;;;;;;;;;;;;;;10.90;35.60;98472.41;4484277;32;34283;-87
2022/01/10 04:26:50;;;;;;;;;;;;;;;10.87;35.64;98473.28;4483352;32;33921;-87
2022/01/10 04:29:17;;;;;;;;;;;;;;;10.41;36.26;98477.53;4484129;32;34075;-87
2022/01/10 04:31:45;;;;;;;;;;;;;;;10.57;36.08;98479.31;4482113;32;34059;-84
2022/01/10 04:34:13;;;;;;;;;;;;;;;10.75;35.88;98480.16;4468762;32;32648;-84
2022/01/10 04:36:40;;;;;;;;;;;;;;;10.82;35.85;98481.91;4480911;32;33372;-85
2022/01/10 04:39:07;;;;;;;;;;;;;;;10.95;35.57;98474.16;4484546;31;34006;-85
2022/01/10 04:41:37;;;;;;;;;;;;;;;10.87;35.62;98482.78;4483836;32;35276;-86
2022/01/10 04:44:05;;;;;;;;;;;;;;;11.00;35.39;98484.50;4484079;32;33074;-85
2022/01/10 04:46:32;;;;;;;;;;;;;;;10.98;35.43;98482.78;4483959;32;33716;-88
2022/01/10 04:49:01;;;;;;;;;;;;;;;11.03;35.38;98481.94;4483735;32;34197;-87
2022/01/10 04:51:29;;;;;;;;;;;;;;;11.05;35.28;98492.28;4484312;32;34038;-87
2022/01/10 04:53:57;;;;;;;;;;;;;;;10.77;35.65;98487.09;4482567;32;34217;-86
2022/01/10 04:56:25;;;;;;;;;;;;;;;10.97;35.39;98487.09;4483537;32;33997;-87
2022/01/10 04:58:52;;;;;;;;;;;;;;;11.07;35.22;98491.44;4483850;32;35026;-84
2022/01/10 05:01:20;;;;;;;;;;;;;;;10.85;35.50;98485.38;4483424;32;34200;-86
2022/01/10 05:03:48;;;;;;;;;;;;;;;11.05;35.25;98487.97;4483642;31;32093;-87
2022/01/10 05:06:15;;;;;;;;;;;;;;;11.04;35.33;98496.62;4483566;32;34347;-87
2022/01/10 05:08:43;;;;;;;;;;;;;;;11.15;35.09;98494.88;4483293;32;33731;-87
2022/01/10 05:11:11;;;;;;;;;;;;;;;11.00;35.16;98500.06;4484017;32;34465;-87
2022/01/10 05:13:38;;;;;;;;;;;;;;;10.43;35.88;98500.00;4483952;32;33152;-85
2022/01/10 05:16:05;;;;;;;;;;;;;;;10.58;35.87;98509.53;4476070;32;34376;-84
2022/01/10 05:18:33;;;;;;;;;;;;;;;10.71;35.62;98516.47;4477530;32;34393;-86
2022/01/10 05:21:00;;;;;;;;;;;;;;;10.82;35.48;98513.88;4483133;32;35388;-87
2022/01/10 05:23:27;;;;;;;;;;;;;;;10.50;36.04;98513.84;4481670;32;34044;-86
2022/01/10 05:25:58;;;;;;;;;;;;;;;10.71;35.74;98513.88;4482047;32;32714;-85
2022/01/10 05:28:25;;;;;;;;;;;;;;;10.90;35.52;98514.75;4481325;32;34535;-88
2022/01/10 05:30:54;;;;;;;;;;;;;;;10.93;35.47;98519.09;4483174;31;34344;-87
2022/01/10 05:33:22;;;;;;;;;;;;;;;10.93;35.49;98524.28;4483750;32;34081;-84
2022/01/10 05:35:49;;;;;;;;;;;;;;;10.94;35.47;98520.81;4483679;32;33802;-86
2022/01/10 05:38:16;;;;;;;;;;;;;;;10.52;35.74;98519.00;4479999;31;34925;-86
2022/01/10 05:40:44;;;;;;;;;;;;;;;10.16;36.17;98518.88;4481764;32;34048;-86
2022/01/10 05:43:11;;;;;;;;;;;;;;;10.41;35.82;98512.06;4483015;32;33411;-87
2022/01/10 05:45:43;;;;;;;;;;;;;;;10.26;36.28;98519.78;4481065;32;34215;-87
2022/01/10 05:48:14;;;;;;;;;;;;;;;9.83;36.67;98531.66;4482402;32;35263;-84
2022/01/10 05:50:44;;;;;;;;;;;;;;;9.59;37.03;98525.50;4481725;32;34474;-89
2022/01/10 05:53:11;;;;;;;;;;;;;;;9.46;37.29;98528.84;4483311;32;33351;-87
2022/01/10 05:55:38;;;;;;;;;;;;;;;9.57;37.42;98537.53;4483662;32;34288;-85
2022/01/10 05:58:07;;;;;;;;;;;;;;;9.52;36.92;98530.63;4483406;32;35292;-86
2022/01/10 06:00:35;;;;;;;;;;;;;;;9.24;37.42;98532.97;4478629;32;34940;-88
2022/01/10 06:03:02;;;;;;;;;;;;;;;8.92;38.08;98533.59;4478188;32;33705;-85
2022/01/10 06:05:31;;;;;;;;;;;;;;;8.65;38.76;98539.34;4482155;32;34237;-87
2022/01/10 06:07:59;;;;;;;;;;;;;;;8.64;38.74;98542.81;4483725;32;34533;-88
2022/01/10 06:10:26;;;;;;;;;;;;;;;8.93;38.19;98537.03;4483499;32;35206;-89
2022/01/10 06:12:55;;;;;;;;;;;;;;;9.01;38.08;98538.81;4484066;32;34582;-89
2022/01/10 06:15:23;;;;;;;;;;;;;;;8.92;38.12;98541.34;4478899;32;33851;-85
2022/01/10 06:17:51;;;;;;;;;;;;;;;9.08;37.73;98541.47;4483866;32;34380;-89
2022/01/10 06:20:18;;;;;;;;;;;;;;;8.93;38.05;98542.19;4482182;32;34450;-86
2022/01/10 06:22:45;;;;;;;;;;;;;;;8.96;38.09;98542.25;4483548;32;34460;-90
2022/01/10 06:25:15;;;;;;;;;;;;;;;9.20;37.60;98545.03;4483530;32;34284;-87
2022/01/10 06:27:42;;;;;;;;;;;;;;;8.96;38.02;98548.28;4483436;32;34388;-87
2022/01/10 06:30:10;;;;;;;;;;;;;;;8.10;39.66;98548.16;4483264;32;35075;-90
2022/01/10 06:32:40;;;;;;;;;;;;;;;7.41;41.11;98565.25;4483642;32;34451;-90
2022/01/10 06:35:08;;;;;;;;;;;;;;;8.43;39.32;98558.91;4481847;32;33915;-86
2022/01/10 06:37:35;;;;;;;;;;;;;;;8.70;38.69;98560.94;4482106;31;34081;-89
2022/01/10 06:40:03;;;;;;;;;;;;;;;8.44;39.28;98570.13;4483899;32;34262;-89
2022/01/10 06:42:31;;;;;;;;;;;;;;;8.73;38.86;98565.28;4482318;32;33548;-89
2022/01/10 06:44:58;;;;;;;;;;;;;;;9.22;38.11;98574.38;4483282;32;33827;-88
2022/01/10 06:47:26;;;;;;;;;;;;;;;9.20;37.85;98570.88;4483726;32;34287;-90
2022/01/10 06:49:54;;;;;;;;;;;;;;;9.05;38.11;98578.50;4483475;32;34174;-89
2022/01/10 06:52:21;;;;;;;;;;;;;;;9.36;37.40;98577.06;4483782;32;33161;-90
2022/01/10 06:54:49;;;;;;;;;;;;;;;9.15;37.73;98576.88;4483704;32;33633;-89
2022/01/10 06:57:16;;;;;;;;;;;;;;;9.18;37.79;98585.53;4483218;32;34311;-90
2022/01/10 06:59:43;;;;;;;;;;;;;;;8.67;38.82;98585.88;4483279;32;34493;-88
2022/01/10 07:02:11;;;;;;;;;;;;;;;9.10;38.04;98589.78;4483184;32;34388;-86
2022/01/10 07:04:39;;;;;;;;;;;;;;;8.92;38.29;98587.00;4482128;32;34102;-89
2022/01/10 07:07:07;;;;;;;;;;;;;;;9.20;37.85;98599.31;4482269;32;35157;-87
2022/01/10 07:09:36;;;;;;;;;;;;;;;9.56;37.49;98602.22;4483598;32;34630;-89
2022/01/10 07:12:05;;;;;;;;;;;;;;;9.78;37.15;98603.25;4483538;32;33713;-88
2022/01/10 07:14:34;;;;;;;;;;;;;;;9.72;36.96;98602.34;4482139;32;34052;-87
2022/01/10 07:17:05;;;;;;;;;;;;;;;9.91;36.58;98605.06;4483336;32;34366;-90
2022/01/10 07:19:33;;;;;;;;;;;;;;;9.46;37.57;98609.03;4482137;32;34480;-88
2022/01/10 07:22:00;;;;;;;;;;;;;;;9.33;37.84;98612.41;4483229;32;34207;-90
2022/01/10 07:24:28;;;;;;;;;;;;;;;9.94;36.75;98613.72;4483247;32;34041;-88
2022/01/10 07:26:55;;;;;;;;;;;;;;;10.04;36.75;98619.84;4481968;32;33898;-89
2022/01/10 07:29:23;;;;;;;;;;;;;;;10.36;35.85;98624.34;4481510;32;33208;-87
2022/01/10 07:31:50;;;;;;;;;;;;;;;10.48;35.72;98624.41;4482505;32;33785;-89
2022/01/10 07:34:17;;;;;;;;;;;;;;;10.59;35.53;98627.91;4483121;32;34788;-89
2022/01/10 07:36:44;;;;;;;;;;;;;;;10.67;35.28;98636.56;4483040;32;34056;-90
2022/01/10 07:39:12;;;;;;;;;;;;;;;10.37;35.74;98642.47;4482838;31;34927;-90
2022/01/10 07:41:45;;;;;;;;;;;;;;;9.96;36.17;98645.69;4482914;32;33605;-89
2022/01/10 07:44:13;;;;;;;;;;;;;;;9.97;36.01;98651.72;4483010;32;34201;-89
2022/01/10 07:46:40;;;;;;;;;;;;;;;8.89;38.01;98654.19;4482770;32;34222;-89
2022/01/10 07:49:08;;;;;;;;;;;;;;;9.45;37.39;98654.75;4482778;32;35345;-89
2022/01/10 07:51:35;;;;;;;;;;;;;;;10.20;36.19;98649.28;4482948;32;34281;-89
2022/01/10 07:54:02;;;;;;;;;;;;;;;10.74;35.39;98644.37;4482693;32;34873;-90
2022/01/10 07:56:30;;;;;;;;;;;;;;;10.88;35.28;98655.69;4481898;32;34579;-87
2022/01/10 07:58:57;;;;;;;;;;;;;;;10.59;35.59;98647.78;4482614;32;34041;-89
2022/01/10 08:01:24;;;;;;;;;;;;;;;10.80;34.86;98652.19;4482637;32;33281;-87
2022/01/10 08:03:52;;;;;;;;;;;;;;;10.83;34.96;98650.44;4482740;32;34831;-88
2022/01/10 08:06:20;;;;;;;;;;;;;;;10.87;34.98;98648.72;4482919;32;33889;-87
2022/01/10 08:08:47;;;;;;;;;;;;;;;11.15;34.58;98650.56;4482404;32;34986;-87
2022/01/10 08:11:14;;;;;;;;;;;;;;;11.22;34.21;98650.56;4482472;32;33552;-87
2022/01/10 08:13:42;;;;;;;;;;;;;;;11.38;33.86;98663.56;4482426;32;34153;-86
2022/01/10 08:16:09;;;;;;;;;;;;;;;11.25;33.88;98664.41;4482263;32;33886;-87
2022/01/10 08:18:36;;;;;;;;;;;;;;;10.88;34.09;98673.81;4481094;32;34300;-86
2022/01/10 08:21:05;;;;;;;;;;;;;;;10.73;33.96;98660.81;4480965;32;32494;-89
2022/01/10 08:23:32;;;;;;;;;;;;;;;10.53;34.40;98669.38;4480831;32;34183;-86
2022/01/10 08:26:00;;;;;;;;;;;;;;;10.67;34.36;98667.69;4482086;32;34216;-90
2022/01/10 08:28:27;;;;;;;;;;;;;;;11.09;33.75;98654.84;4480936;32;35057;-89
2022/01/10 08:30:54;;;;;;;;;;;;;;;10.91;33.99;98672.13;4482146;32;34516;-90
2022/01/10 08:33:22;;;;;;;;;;;;;;;10.83;33.96;98663.41;4482201;32;33915;-89
2022/01/10 08:35:51;;;;;;;;;;;;;;;10.68;34.34;98677.22;4482203;32;33974;-89
2022/01/10 08:38:19;;;;;;;;;;;;;;;10.93;33.86;98675.56;4481907;32;35222;-90
2022/01/10 08:40:46;;;;;;;;;;;;;;;11.05;33.51;98679.06;4482024;32;33674;-90
2022/01/10 08:43:16;;;;;;;;;;;;;;;11.11;33.49;98679.94;4482083;32;35138;-89
2022/01/10 08:45:44;;;;;;;;;;;;;;;11.07;33.67;98686.00;4482721;32;34243;-90
2022/01/10 08:48:12;;;;;;;;;;;;;;;11.12;33.78;98686.84;4484280;32;34648;-87
2022/01/10 08:50:39;;;;;;;;;;;;;;;11.24;33.51;98680.84;4484336;32;34385;-87
2022/01/10 08:53:08;;;;;;;;;;;;;;;11.42;33.00;98685.19;4484088;32;34498;-89
2022/01/10 08:55:36;;;;;;;;;;;;;;;10.76;33.95;98689.31;4484108;32;34303;-90
2022/01/10 08:58:03;;;;;;;;;;;;;;;10.96;33.72;98690.28;4484142;32;35377;-90
2022/01/10 09:00:30;;;;;;;;;;;;;;;11.04;33.58;98687.72;4484168;32;34644;-90
2022/01/10 09:03:00;;;;;;;;;;;;;;;10.50;34.33;98700.44;4483960;32;34152;-90
2022/01/10 09:05:29;;;;;;;;;;;;;;;9.62;35.60;98703.19;4484639;32;34556;-88
2022/01/10 09:07:58;;;;;;;;;;;;;;;9.67;35.64;98710.16;4484264;32;34548;-86
2022/01/10 09:10:26;;;;;;;;;;;;;;;9.49;36.10;98710.00;4483934;32;33862;-89
2022/01/10 09:12:58;;;;;;;;;;;;;;;10.10;34.54;98707.91;4484283;32;34024;-89
2022/01/10 09:15:26;;;;;;;;;;;;;;;10.37;34.57;98706.41;4484104;32;33885;-86
2022/01/10 09:17:53;;;;;;;;;;;;;;;9.67;35.36;98709.31;4483944;32;35022;-90
2022/01/10 09:20:20;;;;;;;;;;;;;;;10.46;34.35;98714.25;4483797;32;34276;-90
2022/01/10 09:22:48;;;;;;;;;;;;;;;10.65;34.31;98718.66;4482379;32;33375;-90
2022/01/10 09:25:15;;;;;;;;;;;;;;;10.67;33.71;98719.53;4483779;32;35156;-86
2022/01/10 09:27:42;;;;;;;;;;;;;;;10.14;34.54;98720.03;4483822;32;34489;-90
2022/01/10 09:30:10;;;;;;;;;;;;;;;9.74;35.45;98721.44;4484261;32;34551;-90
2022/01/10 09:32:37;;;;;;;;;;;;;;;9.62;36.00;98719.63;4483955;32;34154;-88
2022/01/10 09:35:05;;;;;;;;;;;;;;;9.21;36.55;98720.06;4483840;32;34464;-90
2022/01/10 09:37:32;;;;;;;;;;;;;;;9.33;36.26;98724.50;4482603;31;34632;-90
2022/01/10 09:40:05;;;;;;;;;;;;;;;9.22;36.19;98714.03;4482612;32;34018;-90
2022/01/10 09:42:33;;;;;;;;;;;;;;;9.36;36.14;98714.19;4482502;32;33726;-88
2022/01/10 09:45:01;;;;;;;;;;;;;;;9.68;35.92;98713.63;4484213;32;34228;-89
2022/01/10 09:47:28;;;;;;;;;;;;;;;9.48;36.00;98708.25;4483092;32;35283;-88
2022/01/10 09:49:55;;;;;;;;;;;;;;;10.07;34.88;98709.59;4483874;32;34330;-88
2022/01/10 09:52:23;;;;;;;;;;;;;;;9.60;35.26;98703.19;4484000;32;34926;-86
2022/01/10 09:54:52;;;;;;;;;;;;;;;9.52;35.67;98706.56;4482211;32;35127;-89
2022/01/10 09:57:20;;;;;;;;;;;;;;;7.68;38.39;98717.00;4483658;32;34731;-88
2022/01/10 09:59:47;;;;;;;;;;;;;;;8.25;37.68;98711.88;4482548;32;33391;-89
2022/01/10 10:02:15;;;;;;;;;;;;;;;9.25;35.69;98715.78;4483675;32;35077;-85
2022/01/10 10:04:43;;;;;;;;;;;;;;;8.54;36.85;98716.66;4483485;32;34100;-87
2022/01/10 10:07:10;;;;;;;;;;;;;;;7.50;38.92;98713.28;4482286;32;34103;-88
2022/01/10 10:09:37;;;;;;;;;;;;;;;7.67;38.95;98715.28;4482458;32;34136;-86
2022/01/10 10:12:05;;;;;;;;;;;;;;;8.42;38.45;98721.66;4483503;32;33736;-89
2022/01/10 10:14:32;;;;;;;;;;;;;;;8.64;38.49;98723.69;4483657;32;34073;-85
2022/01/10 10:17:08;;;;;;;;;;;;;;;7.78;40.23;98719.78;4483532;32;35287;-88
2022/01/10 10:19:35;;;;;;;;;;;;;;;7.46;41.19;98726.06;4483731;32;33374;-86
2022/01/10 10:22:02;;;;;;;;;;;;;;;8.42;39.63;98724.22;4483708;32;34696;-90
2022/01/10 10:24:29;;;;;;;;;;;;;;;8.12;40.09;98714.28;4483453;32;33962;-86
2022/01/10 10:26:57;;;;;;;;;;;;;;;8.51;39.66;98721.75;4483684;32;34353;-86
2022/01/10 10:29:27;;;;;;;;;;;;;;;9.04;38.65;98716.41;4483697;32;33356;-86
2022/01/10 10:31:56;;;;;;;;;;;;;;;8.48;39.66;98719.13;4483648;32;33767;-90
2022/01/10 10:34:24;;;;;;;;;;;;;;;8.04;40.92;98714.16;4483579;32;34528;-88
2022/01/10 10:37:18;;;;;;;;;;;;;;;9.01;38.95;98714.63;4483674;32;34098;-87
2022/01/10 10:39:46;;;;;;;;;;;;;;;8.60;40.16;98718.44;4480933;31;33323;-89
2022/01/10 10:42:14;;;;;;;;;;;;;;;9.08;39.58;98707.81;4482233;32;33835;-86
2022/01/10 10:44:45;;;;;;;;;;;;;;;9.50;38.39;98703.94;4483463;32;34387;-87
2022/01/10 10:47:14;;;;;;;;;;;;;;;9.64;38.33;98707.53;4483453;32;35089;-89
2022/01/10 10:49:45;;;;;;;;;;;;;;;9.03;38.77;98704.34;4483714;32;33625;-86
2022/01/10 10:52:13;;;;;;;;;;;;;;;9.23;37.55;98718.34;4483380;32;34507;-85
2022/01/10 10:54:41;;;;;;;;;;;;;;;9.85;37.08;98718.94;4483551;32;35244;-86
2022/01/10 10:57:08;;;;;;;;;;;;;;;9.61;36.41;98715.28;4482217;32;34582;-88
2022/01/10 10:59:40;;;;;;;;;;;;;;;9.26;37.99;98712.34;4483333;32;34478;-86
2022/01/10 11:02:07;;;;;;;;;;;;;;;9.64;37.57;98712.72;4483094;32;35032;-88
2022/01/10 11:04:35;;;;;;;;;;;;;;;9.62;37.62;98711.84;4483183;32;34463;-89
2022/01/10 11:07:02;;;;;;;;;;;;;;;9.49;38.02;98717.75;4482065;32;34156;-87
2022/01/10 11:09:30;;;;;;;;;;;;;;;9.95;37.14;98712.97;4482028;32;33617;-89
2022/01/10 11:11:57;;;;;;;;;;;;;;;9.46;38.26;98730.66;4483078;32;33576;-89
2022/01/10 11:14:25;;;;;;;;;;;;;;;9.85;37.31;98718.94;4483198;32;35419;-90
2022/01/10 11:16:54;;;;;;;;;;;;;;;8.85;39.92;98735.13;4482164;32;34453;-89
2022/01/10 11:19:26;;;;;;;;;;;;;;;9.51;38.53;98723.81;4483212;32;33718;-90
2022/01/10 11:22:07;;;;;;;;;;;;;;;9.86;38.16;98734.50;4481828;32;34158;-86
2022/01/10 11:24:41;;;;;;;;;;;;;;;8.87;40.27;98741.22;4481847;32;35109;-91
2022/01/10 11:27:10;;;;;;;;;;;;;;;8.62;40.69;98748.63;4483137;32;34490;-87
2022/01/10 11:29:40;;;;;;;;;;;;;;;9.62;38.55;98742.00;4481991;32;33550;-90
2022/01/10 11:32:07;;;;;;;;;;;;;;;9.29;39.51;98742.56;4483276;32;34852;-89
2022/01/10 11:34:34;;;;;;;;;;;;;;;8.50;40.56;98746.72;4483396;32;35380;-89
2022/01/10 11:37:02;;;;;;;;;;;;;;;8.72;40.48;98752.22;4483475;32;34599;-86
2022/01/10 11:39:36;;;;;;;;;;;;;;;9.40;39.15;98735.78;4481735;31;34096;-87
2022/01/10 11:42:19;;;;;;;;;;;;;;;9.66;38.42;98739.50;4483003;32;33916;-89
2022/01/10 11:45:05;;;;;;;;;;;;;;;9.30;38.54;98744.28;4481619;32;33616;-89
2022/01/10 11:47:53;;;;;;;;;;;;;;;10.00;37.37;98747.56;4482836;32;34340;-86
2022/01/10 11:50:41;;;;;;;;;;;;;;;9.79;37.27;98742.19;4482938;32;33029;-88
2022/01/10 11:53:09;;;;;;;;;;;;;;;9.34;36.56;98751.22;4481452;32;34174;-87
2022/01/10 11:55:42;;;;;;;;;;;;;;;9.37;34.69;98740.91;4482640;32;35307;-86
2022/01/10 11:58:16;;;;;;;;;;;;;;;9.24;34.18;98756.31;4482645;32;34112;-90
2022/01/10 12:00:44;;;;;;;;;;;;;;;10.03;32.08;98746.69;4481417;32;34233;-90
2022/01/10 12:03:11;;;;;;;;;;;;;;;9.75;33.10;98749.06;4468117;32;33754;-89
2022/01/10 12:05:40;;;;;;;;;;;;;;;9.62;33.00;98748.09;4482512;32;35178;-88
2022/01/10 12:08:07;;;;;;;;;;;;;;;9.09;33.80;98757.81;4482646;32;34512;-89
2022/01/10 12:10:35;;;;;;;;;;;;;;;9.78;32.62;98753.41;4482703;32;33738;-88
2022/01/10 12:13:05;;;;;;;;;;;;;;;8.76;32.83;98765.19;4481094;32;33654;-88
2022/01/10 12:15:32;;;;;;;;;;;;;;;8.98;33.12;98763.75;4481386;32;34777;-86
2022/01/10 12:18:00;;;;;;;;;;;;;;;8.16;34.01;98757.38;4483095;32;35263;-85
2022/01/10 12:20:27;;;;;;;;;;;;;;;9.21;31.55;98761.44;4484580;32;33103;-87
2022/01/10 12:22:55;;;;;;;;;;;;;;;8.87;32.40;98764.47;4484496;32;33848;-85
2022/01/10 12:25:23;;;;;;;;;;;;;;;9.08;31.75;98767.31;4482130;32;34053;-90
2022/01/10 12:27:53;;;;;;;;;;;;;;;9.57;30.12;98767.84;4482795;32;34294;-85
2022/01/10 12:30:21;;;;;;;;;;;;;;;9.31;30.65;98761.53;4484359;32;33664;-85
2022/01/10 12:32:49;;;;;;;;;;;;;;;9.96;29.79;98764.81;4482890;32;34932;-87
2022/01/10 12:35:16;;;;;;;;;;;;;;;10.53;29.07;98762.66;4483991;32;34798;-89
2022/01/10 12:37:43;;;;;;;;;;;;;;;10.62;28.89;98764.44;4483856;32;33814;-86
2022/01/10 12:40:13;;;;;;;;;;;;;;;10.66;28.88;98774.84;4483709;32;33623;-89
2022/01/10 12:42:41;;;;;;;;;;;;;;;10.66;28.38;98769.66;4484321;32;34018;-91
2022/01/10 12:45:09;;;;;;;;;;;;;;;11.10;28.00;98779.41;4482038;32;34010;-90
2022/01/10 12:47:37;;;;;;;;;;;;;;;11.02;27.30;98787.97;4468343;32;35249;-88
2022/01/10 12:50:04;;;;;;;;;;;;;;;10.07;28.90;98788.16;4468559;32;34142;-90
2022/01/10 12:52:31;;;;;;;;;;;;;;;10.53;28.20;98783.41;4467583;32;33810;-90
2022/01/10 12:54:59;;;;;;;;;;;;;;;10.41;28.71;98791.94;4467223;32;34291;-90
2022/01/10 12:57:28;;;;;;;;;;;;;;;10.92;27.90;98787.94;4470152;32;35428;-90
2022/01/10 12:59:56;;;;;;;;;;;;;;;10.62;28.20;98796.41;4477621;32;173824;-90
2022/01/10 13:02:32;;;;;;;;;;;;;;;10.68;27.82;98798.16;4483617;32;35013;-90
2022/01/10 13:05:09;;;;;;;;;;;;;;;10.96;27.54;98809.59;4482856;32;34489;-84
2022/01/10 13:07:37;;;;;;;;;;;;;;;10.24;28.25;98814.25;4483900;32;34297;-89
2022/01/10 13:10:06;;;;;;;;;;;;;;;10.37;28.16;98817.81;4482803;32;34144;-89
2022/01/10 13:12:34;;;;;;;;;;;;;;;10.83;27.93;98823.31;4474134;32;35076;-86